Time;durP1;ratioP1;P1;durP2;ratioP2;P2;SDS_P1;SDS_P2;PMS_P1;PMS_P2;Temp;Humidity;BMP_temperature;BMP_pressure;BME280_temperature;BME280_humidity;BME280_pressure;Samples;Min_cycle;Max_cycle;Signal;HPM_P1;HPM_P2
2022/06/15 00:01:37;;;;;;;4.22;2.00;;;;;;;18.97;57.46;100374.94;6158960;23;20018;-73
2022/06/15 00:04:03;;;;;;;3.70;1.95;;;;;;;18.94;57.60;100370.88;6158737;23;20010;-73
2022/06/15 00:06:30;;;;;;;6.03;2.20;;;;;;;18.89;57.69;100373.09;6158672;23;20436;-73
2022/06/15 00:08:56;;;;;;;4.03;2.10;;;;;;;18.86;58.46;100376.59;6158885;23;20002;-73
2022/06/15 00:11:32;;;;;;;5.20;2.50;;;;;;;18.80;58.91;100375.19;6133031;23;20335;-73
2022/06/15 00:14:00;;;;;;;5.05;2.15;;;;;;;18.74;59.25;100375.44;6133689;23;20339;-73
2022/06/15 00:16:25;;;;;;;7.35;2.40;;;;;;;18.75;59.17;100379.09;6108654;23;20020;-73
2022/06/15 00:18:52;;;;;;;6.68;2.10;;;;;;;18.71;59.28;100373.31;6083995;23;20006;-73
2022/06/15 00:21:17;;;;;;;11.95;2.28;;;;;;;18.68;59.50;100384.44;6132739;23;20137;-73
2022/06/15 00:23:43;;;;;;;5.93;2.75;;;;;;;18.65;59.55;100387.97;6158903;23;20606;-73
2022/06/15 00:26:09;;;;;;;4.03;2.50;;;;;;;18.58;62.04;100382.09;6132967;23;20466;-73
2022/06/15 00:28:34;;;;;;;3.83;2.20;;;;;;;18.56;60.17;100382.47;6159978;23;20017;-73
2022/06/15 00:31:00;;;;;;;7.85;2.58;;;;;;;18.56;60.02;100384.47;6160750;23;20020;-73
2022/06/15 00:33:27;;;;;;;3.70;2.22;;;;;;;18.53;60.26;100372.72;6160499;23;20041;-73
2022/06/15 00:35:58;;;;;;;6.18;2.30;;;;;;;18.49;59.57;100379.41;6134372;23;20037;-73
2022/06/15 00:38:28;;;;;;;5.47;2.15;;;;;;;18.46;59.38;100378.09;6160775;23;20001;-73
2022/06/15 00:40:54;;;;;;;6.07;2.42;;;;;;;18.44;59.86;100374.84;6160928;23;20006;-73
2022/06/15 00:43:35;;;;;;;6.05;2.30;;;;;;;18.41;59.30;100372.72;6160857;23;20010;-73
2022/06/15 00:46:21;;;;;;;5.68;2.42;;;;;;;18.38;59.74;100381.84;6134625;23;20017;-73
2022/06/15 00:48:48;;;;;;;4.28;2.38;;;;;;;18.34;59.63;100375.28;6098852;23;20020;-73
2022/06/15 00:51:14;;;;;;;5.03;2.50;;;;;;;18.30;59.83;100379.97;6134669;23;20029;-73
2022/06/15 00:53:39;;;;;;;4.40;2.25;;;;;;;18.28;59.59;100382.31;6110575;23;20009;-73
2022/06/15 00:56:05;;;;;;;4.35;2.10;;;;;;;18.23;59.80;100390.97;6134596;23;20021;-73
2022/06/15 00:58:31;;;;;;;4.32;2.28;;;;;;;18.20;60.47;100386.06;6110299;23;20006;-73
2022/06/15 01:00:57;;;;;;;3.35;2.40;;;;;;;18.18;60.43;100388.38;6160695;23;20020;-73
2022/06/15 01:03:22;;;;;;;3.67;2.20;;;;;;;18.10;60.55;100392.94;6160175;23;20009;-73
2022/06/15 01:05:53;;;;;;;6.38;2.53;;;;;;;18.07;60.66;100388.00;6183882;23;20010;-73
2022/06/15 01:08:40;;;;;;;6.03;2.70;;;;;;;18.06;60.77;100384.38;6110587;23;20013;-73
2022/06/15 01:11:30;;;;;;;5.57;2.60;;;;;;;18.05;60.36;100387.53;6134338;23;20009;-73
2022/06/15 01:14:05;;;;;;;4.45;2.38;;;;;;;18.05;60.35;100394.00;6160542;23;20010;-73
2022/06/15 01:16:44;;;;;;;5.60;2.22;;;;;;;17.98;60.57;100388.09;6160221;23;20064;-73
2022/06/15 01:19:12;;;;;;;3.83;2.30;;;;;;;17.98;61.71;100395.72;6134149;23;20056;-73
2022/06/15 01:21:44;;;;;;;5.22;2.42;;;;;;;17.96;61.49;100387.63;6160414;23;20041;-73
2022/06/15 01:24:30;;;;;;;4.72;2.30;;;;;;;17.95;61.34;100386.00;6111304;23;20072;-73
2022/06/15 01:27:22;;;;;;;5.50;2.20;;;;;;;17.94;61.19;100384.38;6134406;23;20469;-73
2022/06/15 01:30:06;;;;;;;4.57;2.30;;;;;;;17.89;60.83;100380.94;6147887;23;20017;-73
2022/06/15 01:32:41;;;;;;;5.78;2.38;;;;;;;17.88;60.33;100390.53;6160485;23;20033;-73
2022/06/15 01:35:13;;;;;;;4.05;2.20;;;;;;;17.84;59.75;100373.56;6110482;23;20312;-73
2022/06/15 01:37:43;;;;;;;3.85;2.60;;;;;;;17.83;60.00;100372.75;6110223;23;20009;-73
2022/06/15 01:40:31;;;;;;;4.30;2.30;;;;;;;17.82;61.45;100381.50;6159970;23;20021;-73
2022/06/15 01:43:05;;;;;;;3.60;2.20;;;;;;;17.78;60.78;100378.56;6134319;23;20002;-73
2022/06/15 01:45:32;;;;;;;3.25;2.00;;;;;;;17.77;60.84;100379.69;6110706;23;20076;-73
2022/06/15 01:47:59;;;;;;;5.70;2.15;;;;;;;17.74;60.43;100377.56;6133676;23;20005;-73
2022/06/15 01:50:30;;;;;;;5.22;2.40;;;;;;;17.73;60.65;100380.75;6134189;23;20001;-73
2022/06/15 01:53:05;;;;;;;4.32;2.38;;;;;;;17.67;60.26;100382.13;6110045;23;20005;-73
2022/06/15 01:55:33;;;;;;;6.18;2.33;;;;;;;17.63;60.92;100380.00;6160081;23;20005;-73
2022/06/15 01:58:02;;;;;;;4.13;2.35;;;;;;;17.60;61.02;100374.25;6133948;23;20024;-73
2022/06/15 02:00:28;;;;;;;5.78;2.33;;;;;;;17.60;61.82;100374.25;6134098;23;20005;-72
2022/06/15 02:02:59;;;;;;;4.43;2.50;;;;;;;17.58;62.15;100371.81;6133739;23;20421;-73
2022/06/15 02:05:47;;;;;;;4.03;2.05;;;;;;;17.57;61.41;100369.31;6159899;23;20005;-73
2022/06/15 02:08:29;;;;;;;4.18;2.30;;;;;;;17.50;60.78;100369.88;6159430;23;20063;-73
2022/06/15 02:11:08;;;;;;;6.25;2.40;;;;;;;17.48;61.93;100366.59;6111648;23;20010;-73
2022/06/15 02:13:46;;;;;;;4.43;2.25;;;;;;;17.47;61.60;100355.69;6111291;23;20009;-73
2022/06/15 02:16:14;;;;;;;4.30;2.33;;;;;;;17.44;61.38;100360.03;6159975;23;20431;-73
2022/06/15 02:18:40;;;;;;;4.93;2.10;;;;;;;17.41;61.10;100355.09;6109399;23;20065;-73
2022/06/15 02:21:08;;;;;;;3.75;2.30;;;;;;;17.39;61.85;100358.25;6109527;23;20446;-73
2022/06/15 02:23:34;;;;;;;5.72;2.55;;;;;;;17.40;61.43;100353.47;6109812;23;20064;-73
2022/06/15 02:26:00;;;;;;;3.97;2.30;;;;;;;17.37;61.20;100342.91;6109349;23;20045;-73
2022/06/15 02:28:31;;;;;;;4.25;2.30;;;;;;;17.34;62.01;100343.63;6133865;23;20005;-73
2022/06/15 02:30:56;;;;;;;5.07;2.42;;;;;;;17.32;61.86;100340.31;6109528;23;20072;-73
2022/06/15 02:33:33;;;;;;;6.68;2.08;;;;;;;17.28;62.09;100340.19;6133374;23;20009;-73
2022/06/15 02:35:59;;;;;;;3.22;2.22;;;;;;;17.26;61.73;100342.50;6158845;23;20019;-73
2022/06/15 02:38:25;;;;;;;5.30;2.50;;;;;;;17.22;61.23;100338.78;6159886;23;20151;-73
2022/06/15 02:40:51;;;;;;;5.35;2.10;;;;;;;17.21;61.60;100334.31;6159769;23;20029;-73
2022/06/15 02:43:19;;;;;;;4.30;2.25;;;;;;;17.15;61.29;100338.47;6159741;23;20016;-73
2022/06/15 02:45:45;;;;;;;4.65;2.72;;;;;;;17.13;61.84;100338.84;6133855;23;20016;-73
2022/06/15 02:48:10;;;;;;;4.07;2.25;;;;;;;17.10;61.12;100342.31;6108874;23;20007;-73
2022/06/15 02:50:38;;;;;;;2.92;2.20;;;;;;;17.05;61.58;100336.94;6133087;23;20006;-73
2022/06/15 02:53:13;;;;;;;4.13;2.55;;;;;;;17.01;62.37;100347.16;6133363;23;20032;-73
2022/06/15 02:55:39;;;;;;;2.72;2.33;;;;;;;16.97;63.01;100347.03;6133480;23;20562;-73
2022/06/15 02:58:13;;;;;;;6.38;2.63;;;;;;;16.97;63.58;100349.84;6159673;23;20080;-73
2022/06/15 03:00:39;;;;;;;3.88;2.30;;;;;;;16.94;63.06;100352.53;6159585;23;20005;-73
2022/06/15 03:03:05;;;;;;;6.07;2.50;;;;;;;16.93;62.71;100350.84;6159284;23;20065;-73
2022/06/15 03:05:30;;;;;;;5.15;2.35;;;;;;;16.89;62.82;100353.53;6133258;23;20496;-73
2022/06/15 03:07:56;;;;;;;4.40;2.40;;;;;;;16.87;63.05;100352.22;6133465;23;20013;-73
2022/06/15 03:10:21;;;;;;;3.67;2.03;;;;;;;16.84;63.20;100352.91;6159248;23;20012;-73
2022/06/15 03:12:47;;;;;;;4.75;2.30;;;;;;;16.82;62.88;100355.22;6159476;23;20010;-73
2022/06/15 03:15:14;;;;;;;5.32;2.50;;;;;;;16.79;62.82;100350.31;6159221;23;20012;-73
2022/06/15 03:17:39;;;;;;;4.97;2.40;;;;;;;16.77;63.19;100347.00;6159272;23;20037;-73
2022/06/15 03:20:05;;;;;;;2.95;2.03;;;;;;;16.75;63.56;100352.94;6159209;23;20005;-73
2022/06/15 03:22:34;;;;;;;2.80;2.20;;;;;;;16.71;63.03;100358.38;6159661;23;20005;-73
2022/06/15 03:25:00;;;;;;;4.07;2.30;;;;;;;16.69;63.46;100359.91;6159263;23;20006;-73
2022/06/15 03:27:25;;;;;;;3.63;2.35;;;;;;;16.65;63.77;100350.53;6159358;23;20006;-73
2022/06/15 03:29:51;;;;;;;2.88;2.00;;;;;;;16.63;63.63;100352.84;6158890;23;20024;-73
2022/06/15 03:32:17;;;;;;;3.70;2.10;;;;;;;16.60;63.93;100362.75;6159315;23;20056;-73
2022/06/15 03:34:42;;;;;;;4.38;2.20;;;;;;;16.58;64.14;100356.66;6132696;23;20017;-73
2022/06/15 03:37:08;;;;;;;3.63;2.03;;;;;;;16.53;64.31;100356.84;6159403;23;20017;-73
2022/06/15 03:39:34;;;;;;;3.78;2.20;;;;;;;16.50;64.15;100360.34;6159157;23;20006;-73
2022/06/15 03:42:09;;;;;;;6.72;2.50;;;;;;;16.47;64.15;100363.81;6159248;23;20016;-73
2022/06/15 03:44:35;;;;;;;5.20;2.53;;;;;;;16.43;64.58;100355.25;6159086;23;20006;-73
2022/06/15 03:47:00;;;;;;;4.28;2.15;;;;;;;16.44;64.52;100361.69;6159226;23;20013;-73
2022/06/15 03:49:26;;;;;;;5.28;2.38;;;;;;;16.41;63.70;100360.38;6158440;23;20009;-73
2022/06/15 03:51:51;;;;;;;4.15;2.35;;;;;;;16.38;64.49;100363.03;6159249;23;20006;-73
2022/06/15 03:54:17;;;;;;;3.50;2.40;;;;;;;16.34;64.81;100356.47;6158986;23;20006;-73
2022/06/15 03:56:44;;;;;;;4.15;2.38;;;;;;;16.34;64.75;100356.47;6133118;23;20009;-73
2022/06/15 03:59:09;;;;;;;4.85;2.47;;;;;;;16.28;64.60;100365.03;6159127;23;20084;-73
2022/06/15 04:01:35;;;;;;;6.00;2.53;;;;;;;16.26;64.40;100372.16;6132958;23;20020;-73
2022/06/15 04:04:00;;;;;;;4.85;2.42;;;;;;;16.26;64.99;100367.34;6132468;23;20009;-73
2022/06/15 04:06:26;;;;;;;5.70;2.65;;;;;;;16.22;64.76;100366.41;6158860;23;20005;-73
2022/06/15 04:08:52;;;;;;;4.47;2.38;;;;;;;16.20;64.80;100365.09;6158963;23;20305;-73
2022/06/15 04:14:04;;;;;;;2.85;2.30;;;;;;;16.16;64.71;100366.91;6158972;23;20012;-73
2022/06/15 04:16:30;;;;;;;4.72;2.47;;;;;;;16.13;65.76;100367.56;6159105;23;20005;-73
2022/06/15 04:18:56;;;;;;;4.30;2.20;;;;;;;16.10;65.23;100369.06;6132743;23;20060;-73
2022/06/15 04:21:22;;;;;;;4.88;2.40;;;;;;;16.09;65.36;100370.22;6158955;23;20005;-73
2022/06/15 04:23:47;;;;;;;2.88;2.05;;;;;;;16.05;65.82;100370.09;6132878;23;20016;-73
2022/06/15 04:26:13;;;;;;;3.05;2.47;;;;;;;16.04;65.19;100362.00;6158898;23;20010;-73
2022/06/15 04:28:39;;;;;;;4.55;2.78;;;;;;;16.00;65.92;100366.63;6158743;23;20005;-73
2022/06/15 04:31:05;;;;;;;4.90;2.70;;;;;;;15.97;65.98;100370.94;6158453;23;20018;-73
2022/06/15 04:33:31;;;;;;;5.43;2.92;;;;;;;15.99;67.01;100373.38;6158505;23;20499;-73
2022/06/15 04:35:56;;;;;;;6.88;2.80;;;;;;;15.97;67.10;100364.50;6158269;23;20017;-73
2022/06/15 04:38:22;;;;;;;3.30;2.60;;;;;;;15.99;68.15;100376.19;6108462;23;20013;-73
2022/06/15 04:40:47;;;;;;;5.30;2.88;;;;;;;16.00;67.88;100375.03;6158887;23;20009;-73
2022/06/15 04:43:13;;;;;;;6.40;2.80;;;;;;;16.02;66.48;100367.94;6133148;23;20013;-73
2022/06/15 04:45:38;;;;;;;3.25;2.72;;;;;;;16.04;68.43;100376.81;6158744;23;20443;-73
2022/06/15 04:48:04;;;;;;;5.28;2.83;;;;;;;16.07;68.98;100380.94;6158435;23;20012;-73
2022/06/15 04:50:30;;;;;;;6.03;2.92;;;;;;;16.12;70.43;100374.34;6158592;23;20012;-73
2022/06/15 04:52:55;;;;;;;5.63;2.70;;;;;;;16.16;71.78;100378.09;6132619;23;20009;-73
2022/06/15 04:55:21;;;;;;;6.00;3.30;;;;;;;16.20;73.86;100373.50;6158930;23;20394;-73
2022/06/15 04:57:47;;;;;;;4.07;3.05;;;;;;;16.27;73.16;100376.59;6158835;23;20052;-73
2022/06/15 05:00:15;;;;;;;6.30;3.03;;;;;;;16.31;73.61;100384.00;6158860;23;20009;-73
2022/06/15 05:02:41;;;;;;;6.47;2.92;;;;;;;16.43;72.18;100376.84;6132430;23;20378;-73
2022/06/15 05:05:07;;;;;;;7.63;3.47;;;;;;;16.54;75.67;100375.31;6158615;23;20010;-73
2022/06/15 05:07:32;;;;;;;7.80;3.40;;;;;;;16.67;74.74;100377.06;6158751;23;20084;-73
2022/06/15 05:09:58;;;;;;;4.90;2.70;;;;;;;16.81;69.42;100376.03;6132629;23;20013;-73
2022/06/15 05:12:23;;;;;;;4.15;2.47;;;;;;;16.96;68.93;100379.03;6158798;23;20013;-73
2022/06/15 05:14:49;;;;;;;7.07;3.33;;;;;;;17.12;69.99;100376.47;6133258;23;20025;-73
2022/06/15 05:17:15;;;;;;;3.90;2.30;;;;;;;17.27;65.32;100380.63;6160507;23;20055;-73
2022/06/15 05:19:41;;;;;;;4.05;2.17;;;;;;;17.43;64.58;100378.84;6160173;23;20033;-73
2022/06/15 05:22:06;;;;;;;3.70;2.33;;;;;;;17.61;63.74;100381.53;6134556;23;20040;-73
2022/06/15 05:24:32;;;;;;;3.22;2.20;;;;;;;17.78;63.29;100387.00;6160397;23;20012;-73
2022/06/15 05:26:57;;;;;;;3.25;2.25;;;;;;;17.97;62.91;100382.81;6160544;23;20009;-72
2022/06/15 05:29:23;;;;;;;3.55;2.15;;;;;;;18.15;62.14;100384.28;6160190;23;20025;-73
2022/06/15 05:31:48;;;;;;;3.55;2.22;;;;;;;18.33;61.61;100382.09;6160378;23;20017;-73
2022/06/15 05:34:14;;;;;;;3.47;2.05;;;;;;;18.51;61.17;100379.88;6160245;23;20013;-73
2022/06/15 05:36:39;;;;;;;3.90;2.00;;;;;;;18.70;60.68;100382.94;6160303;23;20018;-73
2022/06/15 05:39:05;;;;;;;4.13;2.50;;;;;;;18.88;60.08;100383.50;6160800;23;20374;-73
2022/06/15 05:41:30;;;;;;;4.68;2.53;;;;;;;19.07;60.11;100388.53;6160200;23;20345;-73
2022/06/15 05:46:32;;;;;;;3.40;2.20;;;;;;;19.43;60.73;100386.81;6159676;23;20005;-73
2022/06/15 05:48:58;;;;;;;3.17;2.08;;;;;;;19.62;58.85;100394.63;6159791;23;20024;-73
2022/06/15 05:51:24;;;;;;;3.10;2.05;;;;;;;19.78;58.64;100397.50;6133780;23;20001;-73
2022/06/15 05:53:49;;;;;;;6.05;2.30;;;;;;;19.92;59.98;100394.25;6160244;23;20616;-73
2022/06/15 05:56:15;;;;;;;6.18;2.08;;;;;;;20.05;59.32;100402.28;6160220;23;20009;-73
2022/06/15 05:58:41;;;;;;;5.00;2.20;;;;;;;20.21;58.82;100385.41;6134290;23;20435;-73
2022/06/15 06:01:11;;;;;;;3.08;2.10;;;;;;;20.38;57.90;100389.06;6160062;23;20006;-73
2022/06/15 06:03:36;;;;;;;6.00;3.35;;;;;;;20.53;60.05;100391.06;6160174;23;20084;-73
2022/06/15 06:06:02;;;;;;;7.50;2.83;;;;;;;20.66;59.15;100397.44;6133853;23;20009;-73
2022/06/15 06:08:27;;;;;;;3.95;2.33;;;;;;;20.83;58.94;100404.72;6134528;23;20014;-73
2022/06/15 06:10:53;;;;;;;4.28;2.38;;;;;;;21.00;58.59;100401.47;6160036;23;20032;-73
2022/06/15 06:13:18;;;;;;;4.95;2.22;;;;;;;21.18;56.86;100405.56;6160003;23;20009;-73
2022/06/15 06:15:44;;;;;;;5.35;2.72;;;;;;;21.31;56.49;100408.22;6159733;23;20009;-72
2022/06/15 06:18:09;;;;;;;5.38;2.50;;;;;;;21.49;56.86;100409.50;6159729;23;20016;-72
2022/06/15 06:20:35;;;;;;;4.40;2.38;;;;;;;21.65;56.14;100412.25;6159844;23;20432;-76
2022/06/15 06:23:00;;;;;;;4.55;2.22;;;;;;;21.78;55.93;100402.41;6085601;23;20005;-76
2022/06/15 06:25:26;;;;;;;5.53;2.17;;;;;;;21.90;55.70;100404.28;6133859;23;20009;-72
2022/06/15 06:27:51;;;;;;;4.95;2.45;;;;;;;22.00;56.18;100402.84;6134021;23;20033;-72
2022/06/15 06:30:21;;;;;;;3.75;2.28;;;;;;;22.17;54.51;100410.84;6159816;23;20013;-72
2022/06/15 06:32:46;;;;;;;6.28;2.20;;;;;;;22.33;53.69;100404.31;6159928;23;20093;-72
2022/06/15 06:35:12;;;;;;;5.07;2.53;;;;;;;22.40;55.33;100399.59;6159436;23;20314;-72
2022/06/15 06:37:38;;;;;;;3.92;2.17;;;;;;;22.54;54.09;100401.84;6159079;23;20450;-72
2022/06/15 06:40:04;;;;;;;6.68;2.88;;;;;;;22.64;54.80;100408.88;6109543;23;20296;-72
2022/06/15 06:42:29;;;;;;;3.65;2.60;;;;;;;22.77;55.05;100410.31;6109594;23;20010;-72
2022/06/15 06:44:55;;;;;;;5.38;3.10;;;;;;;22.85;54.24;100403.56;6133778;23;20016;-72
2022/06/15 06:47:20;;;;;;;4.07;1.92;;;;;;;23.05;52.92;100404.31;6109106;23;20014;-72
2022/06/15 06:49:46;;;;;;;6.82;2.50;;;;;;;23.20;53.04;100413.81;6133046;23;20443;-72
2022/06/15 06:52:11;;;;;;;5.93;2.47;;;;;;;23.35;52.34;100421.34;6085375;23;20037;-72
2022/06/15 06:54:37;;;;;;;3.47;2.30;;;;;;;23.53;51.40;100420.78;6133309;23;20101;-72
2022/06/15 06:57:02;;;;;;;4.80;2.30;;;;;;;23.58;52.64;100428.94;6133744;23;20002;-72
2022/06/15 06:59:28;;;;;;;5.57;2.22;;;;;;;23.71;52.01;100432.34;6133668;23;20009;-72
2022/06/15 07:01:53;;;;;;;8.15;2.65;;;;;;;23.86;51.68;100428.50;6109284;23;20080;-72
2022/06/15 07:04:19;;;;;;;6.18;2.28;;;;;;;23.98;50.89;100430.28;6132894;23;20064;-73
2022/06/15 07:06:45;;;;;;;6.40;2.30;;;;;;;24.18;50.88;100433.72;6106866;23;20071;-73
2022/06/15 07:09:11;;;;;;;6.25;2.28;;;;;;;24.26;50.75;100429.75;6133333;23;20005;-72
2022/06/15 07:11:37;;;;;;;6.22;2.13;;;;;;;24.48;50.12;100433.66;6109068;23;20002;-72
2022/06/15 07:14:03;;;;;;;5.63;2.20;;;;;;;24.65;49.54;100432.19;6109040;23;20013;-72
2022/06/15 07:16:29;;;;;;;3.97;2.38;;;;;;;24.73;49.10;100434.69;6159590;23;20021;-72
2022/06/15 07:18:54;;;;;;;7.10;2.40;;;;;;;24.90;48.94;100435.25;6182362;23;20006;-72
2022/06/15 07:21:22;;;;;;;9.82;2.70;;;;;;;25.04;48.80;100428.88;6108985;23;20422;-72
2022/06/15 07:23:49;;;;;;;4.82;1.90;;;;;;;25.16;48.18;100439.97;6108910;23;20650;-72
2022/06/15 07:26:18;;;;;;;5.13;2.10;;;;;;;25.29;48.02;100440.44;6109021;23;20378;-72
2022/06/15 07:28:43;;;;;;;5.40;2.17;;;;;;;25.42;48.10;100441.72;6109352;23;20025;-74
2022/06/15 07:31:09;;;;;;;6.30;2.28;;;;;;;25.56;47.35;100441.81;6133214;23;20013;-72
2022/06/15 07:33:35;;;;;;;3.08;1.98;;;;;;;25.62;47.74;100440.22;6108712;23;20427;-71
2022/06/15 07:36:01;;;;;;;5.75;2.17;;;;;;;25.77;47.34;100446.81;6109022;23;20498;-72
2022/06/15 07:38:26;;;;;;;6.13;2.63;;;;;;;25.85;46.39;100441.97;6133018;23;20010;-72
2022/06/15 07:40:52;;;;;;;5.63;2.50;;;;;;;26.04;46.28;100443.66;6109010;23;20001;-71
2022/06/15 07:43:17;;;;;;;9.73;3.08;;;;;;;26.13;45.97;100448.97;6132508;23;20020;-71
2022/06/15 07:45:43;;;;;;;7.85;3.30;;;;;;;26.22;45.99;100447.38;6108654;23;20005;-71
2022/06/15 07:50:53;;;;;;;5.10;2.38;;;;;;;26.48;44.46;100448.25;6116086;23;20013;-71
2022/06/15 07:53:18;;;;;;;9.13;2.58;;;;;;;26.63;44.21;100447.06;6108958;23;20009;-72
2022/06/15 07:55:45;;;;;;;6.03;2.58;;;;;;;26.73;43.84;100448.31;6108923;23;20017;-72
2022/06/15 07:58:11;;;;;;;5.28;2.65;;;;;;;26.92;44.20;100447.91;6108782;23;20005;-72
2022/06/15 08:00:37;;;;;;;7.30;2.20;;;;;;;26.97;43.22;100458.09;6085228;23;20605;-72
2022/06/15 08:03:04;;;;;;;5.88;2.40;;;;;;;27.15;42.99;100452.38;6108497;23;20009;-71
2022/06/15 08:05:30;;;;;;;5.28;2.60;;;;;;;27.28;43.33;100447.91;6084872;23;20009;-72
2022/06/15 08:07:56;;;;;;;7.35;2.40;;;;;;;27.35;42.18;100436.47;6084926;23;20033;-72
2022/06/15 08:10:24;;;;;;;8.80;2.20;;;;;;;27.45;42.16;100440.53;6084343;23;20014;-72
2022/06/15 08:12:49;;;;;;;4.80;2.30;;;;;;;27.61;42.21;100440.09;6084972;23;20006;-72
2022/06/15 08:15:15;;;;;;;6.80;2.15;;;;;;;27.78;41.60;100446.94;6108650;23;20017;-72
2022/06/15 08:17:53;;;;;;;6.78;2.40;;;;;;;27.88;42.07;100443.25;6108338;23;20015;-72
2022/06/15 08:20:23;;;;;;;4.72;2.03;;;;;;;27.98;41.18;100458.72;6110600;23;20009;-72
2022/06/15 08:22:50;;;;;;;6.18;2.15;;;;;;;28.09;40.94;100458.66;6109307;23;20069;-72
2022/06/15 08:25:18;;;;;;;6.18;2.28;;;;;;;28.17;41.31;100455.34;6108820;23;20009;-71
2022/06/15 08:27:44;;;;;;;8.57;2.25;;;;;;;28.37;40.89;100464.22;6133297;23;20056;-72
2022/06/15 08:30:11;;;;;;;6.82;2.67;;;;;;;28.37;40.26;100458.50;6108337;23;20010;-72
2022/06/15 08:32:38;;;;;;;4.97;2.00;;;;;;;28.58;40.77;100466.13;6108153;23;20009;-72
2022/06/15 08:35:04;;;;;;;7.72;2.60;;;;;;;28.74;40.82;100465.63;6108479;23;20033;-72
2022/06/15 08:37:29;;;;;;;5.38;2.30;;;;;;;28.90;40.92;100462.25;6158856;23;20024;-72
2022/06/15 08:39:55;;;;;;;8.90;2.60;;;;;;;28.92;40.78;100462.63;6108603;23;20009;-72
2022/06/15 08:42:39;;;;;;;8.55;2.45;;;;;;;28.99;40.24;100459.69;6108826;23;20367;-72
2022/06/15 08:45:07;;;;;;;7.75;2.25;;;;;;;29.16;39.78;100464.47;6158874;23;20017;-72
2022/06/15 08:47:48;;;;;;;6.10;2.35;;;;;;;29.29;40.50;100455.38;6108053;23;20009;-72
2022/06/15 08:50:51;;;;;;;6.47;2.63;;;;;;;29.39;39.33;100457.28;6109000;23;20013;-72
2022/06/15 08:53:20;;;;;;;7.43;2.20;;;;;;;29.51;38.96;100473.94;6074633;23;20073;-73
2022/06/15 08:55:51;;;;;;;4.50;1.77;;;;;;;29.71;39.59;100467.63;6075527;23;20074;-72
2022/06/15 08:58:25;;;;;;;3.47;1.98;;;;;;;29.79;39.56;100461.38;6076002;23;20106;-72
2022/06/15 09:00:53;;;;;;;5.70;1.85;;;;;;;29.90;39.48;100472.69;6098945;23;20041;-72
2022/06/15 09:03:24;;;;;;;6.20;2.10;;;;;;;29.99;38.72;100470.13;6051023;23;20038;-72
2022/06/15 09:05:58;;;;;;;7.70;2.00;;;;;;;30.15;38.84;100474.44;6051450;23;20014;-72
2022/06/15 09:08:58;;;;;;;5.80;2.15;;;;;;;30.34;38.93;100479.53;6099092;23;20046;-72
2022/06/15 09:12:49;;;;;;;32.85;6.95;;;;;;;30.41;38.45;100482.25;6074977;23;20018;-72
2022/06/15 09:14:54;;;;;;;12.27;2.95;;;;;;;30.58;38.32;100468.09;6051988;23;20021;-72
2022/06/15 09:17:21;;;;;;;6.15;2.25;;;;;;;30.68;37.21;100470.81;6027955;23;20111;-72
2022/06/15 09:20:10;;;;;;;6.10;1.80;;;;;;;30.81;37.20;100468.16;6075029;23;20155;-72
2022/06/15 09:22:41;;;;;;;4.53;2.20;;;;;;;30.85;36.56;100471.81;6075359;23;20524;-72
2022/06/15 09:25:29;;;;;;;11.10;2.28;;;;;;;30.98;36.72;100471.19;6051531;23;20010;-72
2022/06/15 09:28:02;;;;;;;7.28;2.03;;;;;;;31.09;37.82;100474.66;6099730;23;20013;-72
2022/06/15 09:30:31;;;;;;;7.50;1.98;;;;;;;31.26;37.57;100479.31;6105281;23;20021;-72
2022/06/15 09:33:28;;;;;;;5.60;1.90;;;;;;;31.36;37.36;100471.75;6128973;23;20009;-71
2022/06/15 09:36:02;;;;;;;8.27;2.42;;;;;;;31.45;36.37;100472.00;6129310;23;20021;-72
2022/06/15 09:38:28;;;;;;;7.45;2.42;;;;;;;31.64;36.03;100473.28;6176176;23;20020;-71
2022/06/15 09:41:03;;;;;;;5.97;2.00;;;;;;;31.65;36.24;100468.34;6129603;23;20419;-72
2022/06/15 09:43:44;;;;;;;6.13;2.20;;;;;;;31.58;35.77;100475.84;6127966;23;20017;-72
2022/06/15 09:46:12;;;;;;;5.00;2.15;;;;;;;31.63;36.29;100465.94;6129241;23;20387;-72
2022/06/15 09:48:57;;;;;;;5.38;2.00;;;;;;;31.79;35.76;100470.94;6153606;23;20017;-72
2022/06/15 09:51:28;;;;;;;6.93;2.00;;;;;;;31.86;35.85;100472.84;6152038;23;20034;-72
2022/06/15 09:54:18;;;;;;;7.68;2.03;;;;;;;32.02;35.64;100472.94;6129463;23;20096;-71
2022/06/15 09:56:44;;;;;;;4.90;2.00;;;;;;;32.14;35.15;100483.75;6130872;23;20090;-71
2022/06/15 09:59:12;;;;;;;5.32;1.77;;;;;;;32.28;35.87;100474.00;6153796;23;20010;-72
2022/06/15 10:01:41;;;;;;;7.13;2.28;;;;;;;32.26;34.84;100473.63;6128657;23;20006;-72
2022/06/15 10:04:12;;;;;;;7.78;2.90;;;;;;;32.33;33.97;100475.56;6152904;23;20065;-68
2022/06/15 10:06:57;;;;;;;7.18;2.00;;;;;;;32.40;32.55;100470.47;6128578;23;20006;-68
2022/06/15 10:09:26;;;;;;;4.55;2.05;;;;;;;32.51;32.08;100473.09;6129015;23;20009;-68
2022/06/15 10:12:56;;;;;;;4.45;1.83;;;;;;;32.62;32.81;100472.84;6129113;23;20014;-74
2022/06/15 10:14:48;;;;;;;5.47;2.00;;;;;;;32.80;33.81;100481.88;6128593;23;20005;-74
2022/06/15 10:17:32;;;;;;;4.90;1.85;;;;;;;32.69;31.91;100473.50;6152695;23;20037;-74
2022/06/15 10:19:58;;;;;;;4.75;1.92;;;;;;;32.85;31.72;100477.66;6150544;23;20008;-74
2022/06/15 10:22:36;;;;;;;7.28;2.00;;;;;;;32.85;31.28;100481.34;6178779;23;20420;-74
2022/06/15 10:25:03;;;;;;;3.17;1.80;;;;;;;32.91;30.99;100484.47;6153540;23;20060;-74
2022/06/15 10:27:36;;;;;;;6.43;1.90;;;;;;;32.99;30.87;100493.72;6177893;23;20014;-74
2022/06/15 10:30:08;;;;;;;5.50;1.98;;;;;;;33.00;30.97;100490.44;6175781;23;20010;-74
2022/06/15 10:32:35;;;;;;;5.87;2.10;;;;;;;33.08;30.63;100491.06;6130440;23;20017;-74
2022/06/15 10:35:05;;;;;;;3.80;1.90;;;;;;;33.08;30.66;100489.00;6178088;23;20010;-74
2022/06/15 10:37:50;;;;;;;3.45;1.75;;;;;;;33.15;30.41;100496.63;6130637;23;20014;-74
2022/06/15 10:40:34;;;;;;;5.70;2.28;;;;;;;33.26;30.71;100494.28;6178258;23;20012;-74
2022/06/15 10:43:29;;;;;;;3.40;1.85;;;;;;;33.34;30.98;100492.81;6129432;23;20030;-74
2022/06/15 10:45:59;;;;;;;3.53;1.58;;;;;;;33.32;30.88;100491.66;6130246;23;20062;-74
2022/06/15 10:48:44;;;;;;;4.32;1.95;;;;;;;33.45;30.15;100501.19;6130027;23;20017;-73
2022/06/15 10:51:15;;;;;;;4.57;1.83;;;;;;;33.65;31.35;100494.50;6129889;23;20010;-74
2022/06/15 10:53:45;;;;;;;4.63;1.85;;;;;;;33.73;31.21;100498.81;6128932;23;20061;-74
2022/06/15 11:02:22;;;;;;;5.93;1.80;;;;;;;34.06;30.39;100495.84;6129713;23;20036;-73
2022/06/15 11:04:47;;;;;;;6.47;1.80;;;;;;;34.06;29.99;100493.75;6152932;23;20016;-73
2022/06/15 11:07:22;;;;;;;6.93;2.13;;;;;;;34.13;29.74;100499.34;6129985;23;20062;-73
2022/06/15 11:09:50;;;;;;;6.03;1.88;;;;;;;34.17;29.54;100504.97;6130094;23;20020;-73
2022/06/15 11:12:33;;;;;;;5.30;1.60;;;;;;;34.35;29.72;100493.72;6129736;23;20006;-73
2022/06/15 11:14:59;;;;;;;6.47;1.70;;;;;;;34.46;30.01;100491.31;6152620;23;20013;-73
2022/06/15 11:20:41;;;;;;;6.47;2.10;;;;;;;34.65;28.97;100486.59;6129954;23;20066;-74
2022/06/15 11:23:35;;;;;;;5.38;1.70;;;;;;;34.75;29.00;100490.41;6151319;23;20017;-74
2022/06/15 11:26:55;;;;;;;4.15;1.83;;;;;;;34.80;28.35;100491.91;6151089;23;20372;-73
2022/06/15 11:28:56;;;;;;;8.55;2.10;;;;;;;34.76;28.43;100494.09;6124032;23;20009;-73
2022/06/15 11:31:22;;;;;;;4.35;1.88;;;;;;;34.69;29.19;100486.50;6177125;23;20014;-73
2022/06/15 11:33:50;;;;;;;6.05;1.83;;;;;;;34.77;28.82;100496.53;6177459;23;20016;-74
2022/06/15 11:36:34;;;;;;;5.00;2.10;;;;;;;34.83;28.81;100488.91;6128168;23;20006;-73
2022/06/15 11:39:13;;;;;;;5.35;1.50;;;;;;;34.97;28.86;100492.59;6177002;23;20010;-73
2022/06/15 11:41:59;;;;;;;5.03;2.08;;;;;;;35.10;28.59;100494.22;6128325;23;20475;-73
2022/06/15 11:44:32;;;;;;;6.00;1.80;;;;;;;35.04;28.20;100498.13;6129133;23;20033;-73
2022/06/15 11:47:31;;;;;;;5.32;1.63;;;;;;;35.21;28.17;100504.56;6129839;23;20033;-73
2022/06/15 11:50:02;;;;;;;2.92;1.52;;;;;;;35.30;28.04;100499.72;6128795;23;20010;-73
2022/06/15 11:52:34;;;;;;;5.17;1.93;;;;;;;35.27;27.71;100505.59;6129709;23;20398;-73
2022/06/15 11:55:20;;;;;;;3.90;1.80;;;;;;;35.33;26.96;100500.88;6129845;23;20239;-73